Troy, TX (76579)

12:31 AM CDT on July 26, 2016 (GMT -0500)
AM Lower Troy | | Change Station

Elev 728 ft 31.19 °N, 97.29 °W | Updated 3 minutes ago

Clear
Clear
74.3 °F
Feels Like 73 °F
N
0.0
Wind Variable Wind from NE

Today
High -- | Low -- °F
--% Chance of Precip.
Yesterday
High -- | Low -- °F
Precip. -- in
Pressure 29.95 in
Visibility 10.0 miles
Clouds Clear
Heat Index 73 °F
Dew Point 72 °F
Humidity 91%
Rainfall 0.00 in
Snow Depth Not available.
6:42 AM 8:28 PM
Waning Gibbous, 58% visible
METAR KTPL 260451Z AUTO 13003KT 10SM CLR 24/23 A2995 RMK AO2 SLP140 T02390228
Pressure 29.95 in
Visibility 10.0 miles
Clouds Clear
Heat Index 73 °F
Dew Point 72 °F
Humidity 91%
Rainfall 0.00 in
Snow Depth Not available.
6:42 AM 8:28 PM
Waning Gibbous, 58% visible
METAR KTPL 260451Z AUTO 13003KT 10SM CLR 24/23 A2995 RMK AO2 SLP140 T02390228

10-Day Weather Forecast

Almanac

Astronomy

Jul. 26, 2016 Rise Set
Actual Time
Civil Twilight
Nautical Twilight
Astronomical Twilight
Moon
Length of Visible Light
Length of Day
Tomorrow will be .
, % of the Moon is Illuminated

Today's Extremes

State Highs State Lows

Community

WunderPhotos

Upload Photos

1,927,538 photos uploaded!

WunderBlog® & News

Nearby

Air Quality

  Air Quality AQ Index Pollutant
Not available.

Snow Depth

Station Depth Elevation

Earthquake Activity

City Distance Mag. Time & Date
Minimum magnitude displayed is 2.5.

Coastal Water Temperatures

Place Temperature

Stations

Nearby Weather Stations

Station Location Temp. Windchill Dew Point Humidity Wind Precip. Elev Updated Type
                   

Watches & Warnings

There are currently no watches in effect.